createdAt,value
2018-12-13T00:01:11.483Z,98033.66
2018-12-13T00:04:20.293Z,98028.16
2018-12-13T00:07:26.232Z,98025.61
2018-12-13T00:10:32.775Z,98031.84
2018-12-13T00:13:39.602Z,98027.02
2018-12-13T00:16:45.593Z,98023.79
2018-12-13T00:19:51.474Z,98024.30
2018-12-13T00:22:57.087Z,98027.21
2018-12-13T00:26:03.124Z,98012.81
2018-12-13T00:29:08.713Z,98011.45
2018-12-13T00:32:14.310Z,98011.14
2018-12-13T00:35:19.957Z,98014.48
2018-12-13T00:38:25.931Z,98019.72
2018-12-13T00:41:31.517Z,98015.89
2018-12-13T00:44:37.164Z,98018.39
2018-12-13T00:47:43.126Z,98009.47
2018-12-13T00:50:49.288Z,98014.12
2018-12-13T00:53:55.480Z,98014.86
2018-12-13T00:57:01.412Z,98018.27
2018-12-13T01:00:08.474Z,98007.80
2018-12-13T01:03:14.382Z,98011.70
2018-12-13T01:06:20.992Z,98009.08
2018-12-13T01:09:27.329Z,98012.75
2018-12-13T01:12:33.428Z,98012.70
2018-12-13T01:15:39.302Z,98007.48
2018-12-13T01:18:45.196Z,98009.03
2018-12-13T01:21:50.789Z,98006.99
2018-12-13T01:24:56.659Z,98001.71
2018-12-13T01:28:03.024Z,98002.39
2018-12-13T01:31:08.918Z,97996.06
2018-12-13T01:34:14.796Z,98000.41
2018-12-13T01:37:21.047Z,98003.64
2018-12-13T01:40:26.916Z,98003.14
2018-12-13T01:43:32.816Z,97997.23
2018-12-13T01:46:40.995Z,98001.75
2018-12-13T01:49:48.993Z,97996.19
2018-12-13T01:52:56.580Z,97990.17
2018-12-13T01:56:04.338Z,97987.10
2018-12-13T01:59:11.884Z,97983.19
2018-12-13T02:02:19.331Z,97981.80
2018-12-13T02:05:26.294Z,97985.62
2018-12-13T02:08:34.113Z,97990.59
2018-12-13T02:11:41.276Z,97986.97
2018-12-13T02:14:48.559Z,97984.00
2018-12-13T02:17:55.863Z,97981.03
2018-12-13T02:21:04.390Z,97976.91
2018-12-13T02:24:11.378Z,97979.28
2018-12-13T02:27:18.975Z,97978.36
2018-12-13T02:30:26.458Z,97981.20
2018-12-13T02:33:33.469Z,97982.34
2018-12-13T02:36:40.090Z,97980.30
2018-12-13T02:39:46.379Z,97975.56
2018-12-13T02:42:52.254Z,97976.48
2018-12-13T02:45:58.279Z,97973.57
2018-12-13T02:49:10.543Z,97966.68
2018-12-13T02:52:16.425Z,97966.77
2018-12-13T02:55:22.316Z,97959.94
2018-12-13T02:58:28.220Z,97953.39
2018-12-13T03:01:33.809Z,97955.22
2018-12-13T03:04:39.696Z,97946.05
2018-12-13T03:07:45.619Z,97953.62
2018-12-13T03:10:51.248Z,97954.10
2018-12-13T03:13:57.058Z,97948.41
2018-12-13T03:17:04.186Z,97947.12
2018-12-13T03:20:10.504Z,97941.91
2018-12-13T03:23:16.106Z,97943.25
2018-12-13T03:26:22.658Z,97941.44
2018-12-13T03:29:28.287Z,97933.95
2018-12-13T03:32:34.162Z,97928.84
2018-12-13T03:35:40.062Z,97931.37
2018-12-13T03:38:45.644Z,97931.67
2018-12-13T03:41:51.691Z,97931.33
2018-12-13T03:44:57.610Z,97932.80
2018-12-13T03:48:03.490Z,97929.06
2018-12-13T03:51:09.529Z,97927.24
2018-12-13T03:54:15.483Z,97923.70
2018-12-13T03:57:21.370Z,97922.55
2018-12-13T04:00:27.262Z,97922.16
2018-12-13T04:03:33.141Z,97922.19
2018-12-13T04:06:39.013Z,97919.91
2018-12-13T04:09:44.627Z,97917.72
2018-12-13T04:12:50.534Z,97915.24
2018-12-13T04:15:56.195Z,97910.52
2018-12-13T04:19:02.571Z,97911.45
2018-12-13T04:22:09.060Z,97908.11
2018-12-13T04:25:14.949Z,97905.14
2018-12-13T04:28:20.815Z,97902.83
2018-12-13T04:31:27.226Z,97903.78
2018-12-13T04:34:33.141Z,97896.81
2018-12-13T04:37:39.052Z,97902.82
2018-12-13T04:40:44.932Z,97905.61
2018-12-13T04:43:50.884Z,97896.01
2018-12-13T04:46:58.773Z,97903.16
2018-12-13T04:50:06.617Z,97901.02
2018-12-13T04:53:12.760Z,97898.83
2018-12-13T04:56:18.966Z,97898.52
2018-12-13T04:59:24.922Z,97901.31
2018-12-13T05:02:30.769Z,97889.02
2018-12-13T05:05:36.848Z,97900.62
2018-12-13T05:08:43.159Z,97892.41
2018-12-13T05:11:48.788Z,97883.30
2018-12-13T05:14:55.036Z,97883.02
2018-12-13T05:18:00.919Z,97884.61
2018-12-13T05:21:07.268Z,97883.94
2018-12-13T05:24:13.462Z,97880.34
2018-12-13T05:27:25.849Z,97884.31
2018-12-13T05:30:33.182Z,97892.47
2018-12-13T05:33:41.004Z,97900.47
2018-12-13T05:36:46.662Z,97901.80
2018-12-13T05:39:52.270Z,97902.53
2018-12-13T05:42:57.846Z,97901.36
2018-12-13T05:46:03.616Z,97897.20
2018-12-13T05:49:09.566Z,97899.05
2018-12-13T05:52:15.472Z,97900.89
2018-12-13T05:55:21.395Z,97901.98
2018-12-13T05:58:27.261Z,97908.41
2018-12-13T06:01:39.582Z,97908.85
2018-12-13T06:04:45.474Z,97913.30
2018-12-13T06:07:54.884Z,97912.81
2018-12-13T06:10:59.392Z,97917.70
2018-12-13T06:14:05.286Z,97923.09
2018-12-13T06:17:11.195Z,97916.60
2018-12-13T06:20:17.159Z,97919.25
2018-12-13T06:23:23.307Z,97915.20
2018-12-13T06:26:29.196Z,97907.20
2018-12-13T06:29:41.593Z,97919.72
2018-12-13T06:32:42.760Z,97921.53
2018-12-13T06:35:48.672Z,97927.40
2018-12-13T06:38:54.713Z,97927.02
2018-12-13T06:42:00.609Z,97922.01
2018-12-13T06:45:08.261Z,97919.05
2018-12-13T06:48:14.236Z,97911.83
2018-12-13T06:51:20.348Z,97927.94
2018-12-13T06:54:26.232Z,97925.00
2018-12-13T06:57:32.111Z,97922.64
2018-12-13T07:00:38.385Z,97916.53
2018-12-13T07:03:44.280Z,97929.30
2018-12-13T07:06:50.995Z,97923.59
2018-12-13T07:09:57.037Z,97930.31
2018-12-13T07:13:02.654Z,97928.31
2018-12-13T07:16:08.313Z,97934.53
2018-12-13T07:19:13.966Z,97936.48
2018-12-13T07:22:19.597Z,97938.67
2018-12-13T07:25:25.207Z,97937.68
2018-12-13T07:28:30.879Z,97933.34
2018-12-13T07:31:36.495Z,97934.16
2018-12-13T07:34:42.098Z,97932.70
2018-12-13T07:37:47.835Z,97925.38
2018-12-13T07:40:54.010Z,97927.73
2018-12-13T07:43:59.876Z,97923.50
2018-12-13T07:47:05.815Z,97921.89
2018-12-13T07:50:11.863Z,97919.84
2018-12-13T07:53:17.809Z,97918.13
2018-12-13T07:56:23.719Z,97917.97
2018-12-13T07:59:29.592Z,97914.91
2018-12-13T08:02:35.218Z,97911.35
2018-12-13T08:05:40.833Z,97899.84
2018-12-13T08:08:46.433Z,97903.08
2018-12-13T08:11:52.327Z,97902.31
2018-12-13T08:14:58.153Z,97897.59
2018-12-13T08:18:03.740Z,97900.45
2018-12-13T08:21:11.314Z,97904.13
2018-12-13T08:24:17.188Z,97903.63
2018-12-13T08:27:24.490Z,97902.82
2018-12-13T08:30:30.392Z,97896.55
2018-12-13T08:33:37.021Z,97898.37
2018-12-13T08:36:42.617Z,97900.20
2018-12-13T08:39:48.211Z,97897.52
2018-12-13T08:42:54.462Z,97894.39
2018-12-13T08:46:00.512Z,97888.39
2018-12-13T08:49:07.174Z,97902.84
2018-12-13T08:52:13.696Z,97896.43
2018-12-13T08:55:19.588Z,97898.78
2018-12-13T08:58:25.183Z,97898.03
2018-12-13T09:01:31.060Z,97893.80
2018-12-13T09:04:36.634Z,97892.94
2018-12-13T09:07:42.242Z,97899.41
2018-12-13T09:10:48.225Z,97895.75
2018-12-13T09:13:53.844Z,97891.41
2018-12-13T09:16:59.765Z,97893.67
2018-12-13T09:20:07.202Z,97896.16
2018-12-13T09:23:13.100Z,97893.94
2018-12-13T09:26:19.277Z,97896.54
2018-12-13T09:29:26.214Z,97892.52
2018-12-13T09:32:32.115Z,97885.09
2018-12-13T09:35:37.709Z,97880.13
2018-12-13T09:38:43.923Z,97881.02
2018-12-13T09:41:49.832Z,97875.14
2018-12-13T09:44:55.869Z,97872.70
2018-12-13T09:48:01.482Z,97869.00
2018-12-13T09:51:07.117Z,97860.14
2018-12-13T09:54:12.983Z,97862.42
2018-12-13T09:57:19.354Z,97860.58
2018-12-13T10:00:25.572Z,97856.91
2018-12-13T10:03:31.623Z,97852.04
2018-12-13T10:06:37.522Z,97847.57
2018-12-13T10:09:43.407Z,97844.56
2018-12-13T10:12:49.207Z,97842.09
2018-12-13T10:15:55.388Z,97836.08
2018-12-13T10:19:01.255Z,97832.80
2018-12-13T10:22:11.612Z,97833.05
2018-12-13T10:25:15.248Z,97834.86
2018-12-13T10:28:21.497Z,97833.01
2018-12-13T10:31:27.386Z,97825.84
2018-12-13T10:34:32.981Z,97827.70
2018-12-13T10:37:38.592Z,97823.41
2018-12-13T10:40:44.440Z,97824.53
2018-12-13T10:43:52.901Z,97823.30
2018-12-13T10:46:59.248Z,97822.75
2018-12-13T10:50:07.192Z,97820.01
2018-12-13T10:53:13.069Z,97821.32
2018-12-13T10:56:18.961Z,97813.75
2018-12-13T10:59:24.769Z,97817.61
2018-12-13T11:03:40.873Z,97813.56
2018-12-13T11:06:46.741Z,97810.30
2018-12-13T11:09:52.471Z,97814.84
2018-12-13T11:12:58.114Z,97801.53
2018-12-13T11:16:04.022Z,97804.47
2018-12-13T11:19:09.668Z,97798.96
2018-12-13T11:22:15.291Z,97793.23
2018-12-13T11:25:21.275Z,97794.03
2018-12-13T11:30:06.537Z,97792.42
2018-12-13T11:33:13.580Z,97798.31
2018-12-13T11:36:21.126Z,97796.70
2018-12-13T11:39:27.066Z,97805.51
2018-12-13T11:42:32.951Z,97801.78
2018-12-13T11:45:38.997Z,97795.03
2018-12-13T11:48:44.913Z,97784.99
2018-12-13T11:51:50.767Z,97781.55
2018-12-13T11:55:00.158Z,97787.44
2018-12-13T11:58:13.389Z,97781.68
2018-12-13T12:01:18.973Z,97775.92
2018-12-13T12:04:25.153Z,97773.00
2018-12-13T12:07:30.895Z,97771.13
2018-12-13T12:10:36.511Z,97769.37
2018-12-13T12:13:42.839Z,97764.53
2018-12-13T12:16:48.700Z,97768.00
2018-12-13T12:19:55.479Z,97767.52
2018-12-13T12:23:01.354Z,97769.06
2018-12-13T12:26:06.939Z,97759.47
2018-12-13T12:29:13.873Z,97762.47
2018-12-13T12:32:19.773Z,97757.27
2018-12-13T12:35:25.382Z,97768.39
2018-12-13T12:38:31.272Z,97756.06
2018-12-13T12:41:36.988Z,97759.96
2018-12-13T12:44:42.776Z,97753.98
2018-12-13T12:47:48.381Z,97752.89
2018-12-13T12:50:54.231Z,97752.89
2018-12-13T12:53:59.844Z,97753.80
2018-12-13T12:57:05.868Z,97750.76
2018-12-13T13:00:12.217Z,97748.89
2018-12-13T13:03:18.087Z,97741.28
2018-12-13T13:06:23.671Z,97741.59
2018-12-13T13:09:29.531Z,97731.50
2018-12-13T13:12:35.532Z,97733.32
2018-12-13T13:15:41.361Z,97730.39
2018-12-13T13:18:47.360Z,97743.00
2018-12-13T13:21:53.224Z,97739.84
2018-12-13T13:24:59.116Z,97737.98
2018-12-13T13:28:05.212Z,97742.95
2018-12-13T13:31:11.091Z,97744.31
2018-12-13T13:34:23.966Z,97742.05
2018-12-13T13:37:32.849Z,97749.88
2018-12-13T13:40:38.767Z,97750.72
2018-12-13T13:43:44.663Z,97749.32
2018-12-13T13:46:50.259Z,97748.95
2018-12-13T13:49:56.169Z,97749.12
2018-12-13T13:53:01.771Z,97745.59
2018-12-13T13:56:07.639Z,97747.16
2018-12-13T13:59:13.254Z,97750.91
2018-12-13T14:02:19.441Z,97744.00
2018-12-13T14:05:25.334Z,97744.31
2018-12-13T14:08:31.242Z,97740.68
2018-12-13T14:11:37.129Z,97746.84
2018-12-13T14:14:44.292Z,97742.25
2018-12-13T14:17:50.291Z,97740.08
2018-12-13T14:20:56.164Z,97741.11
2018-12-13T14:24:02.026Z,97739.02
2018-12-13T14:27:07.937Z,97734.80
2018-12-13T14:30:13.808Z,97738.57
2018-12-13T14:33:19.973Z,97737.64
2018-12-13T14:36:25.827Z,97738.82
2018-12-13T14:39:32.493Z,97744.00
2018-12-13T14:42:40.564Z,97744.00
2018-12-13T14:45:46.154Z,97755.77
2018-12-13T14:48:52.035Z,97751.14
2018-12-13T14:51:57.599Z,97742.77
2018-12-13T14:55:03.945Z,97745.31
2018-12-13T14:58:09.873Z,97743.45
2018-12-13T15:01:15.735Z,97747.59
2018-12-13T15:04:21.634Z,97743.40
2018-12-13T15:07:28.267Z,97741.00
2018-12-13T15:10:34.106Z,97741.78
2018-12-13T15:13:40.006Z,97739.67
2018-12-13T15:16:45.706Z,97742.55
2018-12-13T15:19:51.398Z,97742.36
2018-12-13T15:22:57.027Z,97738.56
2018-12-13T15:26:02.612Z,97742.02
2018-12-13T15:29:09.312Z,97739.82
2018-12-13T15:32:15.178Z,97740.50
2018-12-13T15:35:21.298Z,97736.50
2018-12-13T15:38:26.863Z,97735.95
2018-12-13T15:41:32.725Z,97741.48
2018-12-13T15:44:38.375Z,97731.09
2018-12-13T15:47:43.957Z,97739.22
2018-12-13T15:50:49.921Z,97733.06
2018-12-13T15:53:55.862Z,97726.66
2018-12-13T15:57:01.420Z,97723.20
2018-12-13T16:00:09.894Z,97726.08
2018-12-13T16:03:17.485Z,97731.50
2018-12-13T16:06:23.369Z,97732.27
2018-12-13T16:09:29.236Z,97731.88
2018-12-13T16:12:35.698Z,97740.36
2018-12-13T16:15:41.608Z,97738.30
2018-12-13T16:18:48.860Z,97753.69
2018-12-13T16:21:55.463Z,97751.72
2018-12-13T16:25:02.278Z,97745.63
2018-12-13T16:28:09.565Z,97740.43
2018-12-13T16:31:16.413Z,97737.52
2018-12-13T16:34:23.602Z,97738.55
2018-12-13T16:37:30.843Z,97738.68
2018-12-13T16:40:39.428Z,97733.97
2018-12-13T16:43:47.369Z,97741.78
2018-12-13T16:46:54.660Z,97735.48
2018-12-13T16:50:00.727Z,97730.34
2018-12-13T16:53:06.567Z,97731.07
2018-12-13T16:56:13.173Z,97733.95
2018-12-13T16:59:19.971Z,97738.87
2018-12-13T17:02:25.831Z,97738.14
2018-12-13T17:05:32.423Z,97739.80
2018-12-13T17:08:38.987Z,97737.24
2018-12-13T17:11:44.883Z,97735.67
2018-12-13T17:14:50.760Z,97733.89
2018-12-13T17:17:56.366Z,97732.14
2018-12-13T17:21:02.248Z,97731.11
2018-12-13T17:24:07.824Z,97733.21
2018-12-13T17:27:13.920Z,97731.16
2018-12-13T17:30:20.850Z,97736.36
2018-12-13T17:33:26.781Z,97730.77
2018-12-13T17:36:32.673Z,97735.05
2018-12-13T17:39:38.538Z,97730.81
2018-12-13T17:42:44.417Z,97728.69
2018-12-13T17:45:50.076Z,97738.02
2018-12-13T17:48:55.696Z,97736.16
2018-12-13T17:52:06.874Z,97742.81
2018-12-13T17:55:13.055Z,97748.08
2018-12-13T17:58:19.255Z,97749.81
2018-12-13T18:01:25.151Z,97743.63
2018-12-13T18:04:31.041Z,97737.34
2018-12-13T18:07:38.200Z,97737.81
2018-12-13T18:10:43.812Z,97743.77
2018-12-13T18:13:49.426Z,97744.45
2018-12-13T18:16:55.511Z,97746.52
2018-12-13T18:20:01.744Z,97749.00
2018-12-13T18:23:08.266Z,97746.52
2018-12-13T18:26:14.153Z,97743.16
2018-12-13T18:29:20.010Z,97751.59
2018-12-13T18:32:26.638Z,97751.06
2018-12-13T18:35:32.504Z,97752.00
2018-12-13T18:38:38.095Z,97750.74
2018-12-13T18:41:44.282Z,97746.14
2018-12-13T18:44:50.133Z,97755.72
2018-12-13T18:47:56.014Z,97752.80
2018-12-13T18:51:01.944Z,97749.86
2018-12-13T18:54:07.812Z,97746.06
2018-12-13T18:57:13.541Z,97751.49
2018-12-13T19:00:19.131Z,97744.81
2018-12-13T19:03:24.995Z,97744.41
2018-12-13T19:06:30.595Z,97743.50
2018-12-13T19:09:37.772Z,97747.32
2018-12-13T19:12:45.303Z,97741.92
2018-12-13T19:15:51.524Z,97749.44
2018-12-13T19:18:57.959Z,97741.04
2018-12-13T19:22:05.652Z,97740.18
2018-12-13T19:25:12.116Z,97737.24
2018-12-13T19:28:20.467Z,97740.66
2018-12-13T19:31:27.597Z,97738.92
2018-12-13T19:34:34.566Z,97736.91
2018-12-13T19:37:41.638Z,97735.20
2018-12-13T19:40:48.518Z,97737.72
2018-12-13T19:43:57.811Z,97735.17
2018-12-13T19:47:05.676Z,97729.75
2018-12-13T19:50:11.930Z,97736.06
2018-12-13T19:53:19.428Z,97739.02
2018-12-13T19:56:27.013Z,97746.43
2018-12-13T19:59:34.279Z,97744.50
2018-12-13T20:02:40.252Z,97754.59
2018-12-13T20:05:45.859Z,97754.58
2018-12-13T20:08:51.814Z,97746.71
2018-12-13T20:11:57.743Z,97749.19
2018-12-13T20:15:04.337Z,97755.03
2018-12-13T20:18:10.156Z,97757.46
2018-12-13T20:21:16.187Z,97753.80
2018-12-13T20:24:22.083Z,97765.55
2018-12-13T20:27:28.061Z,97761.99
2018-12-13T20:30:34.288Z,97760.47
2018-12-13T20:33:40.349Z,97763.00
2018-12-13T20:36:46.334Z,97757.22
2018-12-13T20:39:53.300Z,97754.40
2018-12-13T20:43:00.735Z,97760.58
2018-12-13T20:46:07.514Z,97763.00
2018-12-13T20:49:15.617Z,97762.60
2018-12-13T20:52:22.791Z,97762.42
2018-12-13T20:55:29.766Z,97764.55
2018-12-13T20:58:37.692Z,97761.09
2018-12-13T21:01:43.649Z,97758.24
2018-12-13T21:04:49.784Z,97767.96
2018-12-13T21:08:00.245Z,97762.66
2018-12-13T21:11:07.633Z,97766.27
2018-12-13T21:14:13.898Z,97771.19
2018-12-13T21:17:19.491Z,97775.81
2018-12-13T21:20:25.336Z,97766.89
2018-12-13T21:23:31.213Z,97755.26
2018-12-13T21:26:36.872Z,97765.61
2018-12-13T21:29:42.724Z,97761.99
2018-12-13T21:32:48.361Z,97766.42
2018-12-13T21:35:54.439Z,97758.94
2018-12-13T21:39:00.360Z,97760.73
2018-12-13T21:42:06.884Z,97761.79
2018-12-13T21:45:13.192Z,97751.95
2018-12-13T21:48:19.078Z,97762.94
2018-12-13T21:51:24.651Z,97759.50
2018-12-13T21:54:37.553Z,97758.70
2018-12-13T21:57:43.155Z,97758.90
2018-12-13T22:00:49.055Z,97753.66
2018-12-13T22:03:54.658Z,97748.52
2018-12-13T22:07:00.527Z,97752.36
2018-12-13T22:10:07.913Z,97758.72
2018-12-13T22:13:14.838Z,97760.90
2018-12-13T22:16:20.892Z,97757.31
2018-12-13T22:19:26.810Z,97756.30
2018-12-13T22:22:33.763Z,97758.41
2018-12-13T22:25:39.631Z,97765.15
2018-12-13T22:28:45.848Z,97766.45
2018-12-13T22:31:52.313Z,97763.44
2018-12-13T22:34:57.918Z,97761.53
2018-12-13T22:38:04.052Z,97763.20
2018-12-13T22:41:10.251Z,97761.39
2018-12-13T22:44:16.150Z,97763.81
2018-12-13T22:47:21.761Z,97762.00
2018-12-13T22:50:28.147Z,97767.63
2018-12-13T22:53:35.026Z,97768.44
2018-12-13T22:56:40.913Z,97771.72
2018-12-13T22:59:46.788Z,97776.66
2018-12-13T23:02:52.387Z,97774.41
2018-12-13T23:05:58.250Z,97778.06
2018-12-13T23:09:07.745Z,97779.25
2018-12-13T23:12:15.661Z,97775.42
2018-12-13T23:15:21.260Z,97770.34
2018-12-13T23:18:27.143Z,97772.98
2018-12-13T23:21:32.707Z,97777.48
2018-12-13T23:24:38.595Z,97770.55
2018-12-13T23:27:44.899Z,97771.66
2018-12-13T23:30:50.776Z,97770.86
2018-12-13T23:33:56.647Z,97764.95
2018-12-13T23:37:02.258Z,97761.13
2018-12-13T23:40:08.914Z,97769.02
2018-12-13T23:43:14.785Z,97765.22
2018-12-13T23:46:20.352Z,97762.41
2018-12-13T23:49:26.243Z,97761.59
2018-12-13T23:52:31.835Z,97760.77
2018-12-13T23:55:38.171Z,97759.53
2018-12-13T23:58:44.675Z,97759.26
